createdAt,value
2019-01-15T00:01:15.731Z,12.80
2019-01-15T00:03:44.381Z,9.70
2019-01-15T00:06:12.994Z,12.80
2019-01-15T00:08:42.803Z,20.17
2019-01-15T00:11:11.236Z,12.73
2019-01-15T00:13:40.677Z,17.47
2019-01-15T00:16:09.362Z,25.33
2019-01-15T00:18:41.405Z,14.83
2019-01-15T00:21:11.061Z,15.33
2019-01-15T00:23:42.333Z,10.57
2019-01-15T00:26:11.554Z,13.30
2019-01-15T00:28:40.621Z,13.97
2019-01-15T00:31:09.196Z,14.57
2019-01-15T00:33:38.157Z,15.90
2019-01-15T00:36:06.965Z,12.67
2019-01-15T00:38:35.653Z,16.50
2019-01-15T00:41:04.243Z,11.87
2019-01-15T00:43:33.905Z,16.67
2019-01-15T00:46:02.408Z,13.17
2019-01-15T00:48:31.291Z,15.03
2019-01-15T00:50:59.758Z,19.83
2019-01-15T00:53:28.741Z,10.03
2019-01-15T00:55:57.922Z,12.60
2019-01-15T00:58:28.326Z,15.40
2019-01-15T01:00:58.170Z,15.87
2019-01-15T01:03:26.895Z,14.00
2019-01-15T01:05:55.535Z,15.47
2019-01-15T01:08:24.360Z,11.23
2019-01-15T01:10:55.546Z,14.60
2019-01-15T01:13:24.200Z,14.30
2019-01-15T01:15:52.805Z,15.70
2019-01-15T01:18:22.868Z,15.93
2019-01-15T01:20:51.593Z,12.77
2019-01-15T01:23:19.972Z,18.07
2019-01-15T01:25:51.152Z,15.73
2019-01-15T01:28:20.095Z,13.57
2019-01-15T01:30:49.882Z,18.60
2019-01-15T01:33:19.348Z,14.47
2019-01-15T01:35:50.843Z,17.00
2019-01-15T01:38:21.328Z,10.73
2019-01-15T01:40:50.147Z,11.53
2019-01-15T01:43:18.643Z,10.83
2019-01-15T01:45:48.296Z,23.60
2019-01-15T01:48:17.194Z,18.90
2019-01-15T01:50:48.277Z,12.57
2019-01-15T01:53:17.637Z,22.50
2019-01-15T01:55:46.415Z,12.90
2019-01-15T01:58:14.931Z,18.47
2019-01-15T02:00:44.178Z,14.47
2019-01-15T02:03:16.328Z,18.80
2019-01-15T02:05:47.966Z,19.10
2019-01-15T02:08:16.690Z,12.63
2019-01-15T02:10:44.943Z,11.27
2019-01-15T02:13:13.434Z,13.20
2019-01-15T02:15:42.092Z,13.00
2019-01-15T02:18:11.729Z,13.03
2019-01-15T02:20:41.478Z,20.23
2019-01-15T02:23:10.430Z,17.13
2019-01-15T02:25:42.161Z,23.57
2019-01-15T02:28:12.680Z,13.67
2019-01-15T02:30:45.690Z,18.37
2019-01-15T02:33:14.419Z,13.83
2019-01-15T02:35:43.818Z,15.17
2019-01-15T02:38:12.514Z,15.23
2019-01-15T02:40:41.310Z,18.50
2019-01-15T02:43:10.186Z,16.80
2019-01-15T02:45:41.420Z,15.17
2019-01-15T02:48:09.767Z,21.53
2019-01-15T02:50:42.046Z,18.03
2019-01-15T02:53:10.606Z,17.93
2019-01-15T02:55:40.345Z,20.23
2019-01-15T02:58:10.040Z,14.07
2019-01-15T03:00:39.941Z,13.13
2019-01-15T03:03:09.337Z,19.67
2019-01-15T03:05:38.541Z,21.03
2019-01-15T03:08:07.209Z,21.80
2019-01-15T03:10:36.350Z,17.47
2019-01-15T03:13:05.119Z,19.87
2019-01-15T03:15:33.715Z,22.53
2019-01-15T03:18:03.396Z,15.37
2019-01-15T03:20:32.893Z,22.90
2019-01-15T03:23:02.807Z,16.60
2019-01-15T03:25:31.444Z,14.70
2019-01-15T03:28:01.752Z,17.90
2019-01-15T03:30:30.911Z,17.10
2019-01-15T03:33:00.727Z,25.40
2019-01-15T03:35:29.878Z,18.13
2019-01-15T03:37:58.419Z,19.03
2019-01-15T03:40:27.213Z,21.63
2019-01-15T03:43:03.167Z,16.33
2019-01-15T03:45:27.368Z,18.47
2019-01-15T03:47:56.000Z,19.97
2019-01-15T03:50:24.498Z,20.77
2019-01-15T03:52:53.954Z,23.70
2019-01-15T03:55:23.273Z,20.33
2019-01-15T03:57:52.199Z,19.03
2019-01-15T04:00:22.795Z,18.30
2019-01-15T04:02:56.391Z,21.33
2019-01-15T04:05:25.449Z,23.33
2019-01-15T04:07:56.042Z,19.63
2019-01-15T04:10:25.808Z,16.27
2019-01-15T04:12:54.210Z,23.13
2019-01-15T04:15:23.670Z,21.40
2019-01-15T04:17:55.364Z,17.63
2019-01-15T04:20:24.410Z,21.67
2019-01-15T04:22:55.873Z,18.50
2019-01-15T04:25:24.592Z,28.13
2019-01-15T04:27:53.052Z,22.53
2019-01-15T04:30:22.916Z,20.93
2019-01-15T04:32:51.896Z,20.97
2019-01-15T04:35:20.820Z,21.03
2019-01-15T04:37:49.883Z,21.40
2019-01-15T04:40:20.030Z,22.87
2019-01-15T04:42:49.218Z,28.13
2019-01-15T04:45:19.840Z,22.63
2019-01-15T04:47:48.345Z,20.03
2019-01-15T04:50:16.908Z,21.10
2019-01-15T04:52:51.288Z,19.30
2019-01-15T04:55:19.801Z,22.07
2019-01-15T04:57:49.696Z,20.07
2019-01-15T05:00:19.436Z,23.93
2019-01-15T05:02:49.013Z,15.97
2019-01-15T05:05:17.800Z,19.17
2019-01-15T05:07:50.198Z,22.77
2019-01-15T05:10:19.348Z,20.53
2019-01-15T05:12:51.326Z,20.07
2019-01-15T05:19:31.510Z,21.10
2019-01-15T05:22:01.230Z,17.67
2019-01-15T05:24:31.484Z,22.17
2019-01-15T05:27:00.889Z,19.33
2019-01-15T05:29:30.687Z,21.00
2019-01-15T05:31:59.234Z,21.80
2019-01-15T05:34:28.787Z,25.60
2019-01-15T05:36:58.184Z,26.57
2019-01-15T05:39:28.299Z,19.37
2019-01-15T05:41:56.684Z,31.77
2019-01-15T05:44:28.382Z,19.70
2019-01-15T05:46:57.226Z,22.80
2019-01-15T05:49:26.615Z,22.80
2019-01-15T05:51:55.176Z,25.80
2019-01-15T05:54:23.988Z,28.00
2019-01-15T05:56:52.822Z,25.83
2019-01-15T05:59:24.306Z,30.93
2019-01-15T06:01:54.580Z,32.10
2019-01-15T06:04:23.647Z,26.63
2019-01-15T06:06:55.172Z,33.70
2019-01-15T06:09:24.318Z,36.23
2019-01-15T06:11:55.603Z,25.47
2019-01-15T06:14:25.372Z,32.97
2019-01-15T06:16:54.669Z,36.23
2019-01-15T06:19:26.474Z,32.63
2019-01-15T06:21:57.217Z,29.63
2019-01-15T06:24:38.442Z,36.97
2019-01-15T06:27:21.382Z,33.00
2019-01-15T06:29:51.718Z,40.97
2019-01-15T06:32:22.671Z,36.77
2019-01-15T06:34:52.699Z,40.10
2019-01-15T06:37:21.873Z,35.83
2019-01-15T06:39:51.105Z,35.50
2019-01-15T06:42:22.255Z,38.23
2019-01-15T06:44:54.617Z,44.50
2019-01-15T06:47:24.045Z,44.00
2019-01-15T06:49:52.553Z,44.60
2019-01-15T06:52:21.085Z,44.93
2019-01-15T06:54:50.390Z,42.20
2019-01-15T06:57:18.974Z,41.37
2019-01-15T06:59:47.464Z,49.40
2019-01-15T07:02:18.003Z,46.00
2019-01-15T07:04:46.938Z,46.90
2019-01-15T07:07:16.548Z,50.50
2019-01-15T07:09:45.503Z,49.73
2019-01-15T07:12:14.565Z,48.20
2019-01-15T07:14:44.729Z,45.70
2019-01-15T07:17:13.977Z,49.93
2019-01-15T07:19:43.898Z,47.03
2019-01-15T07:22:14.133Z,48.87
2019-01-15T07:24:46.638Z,48.17
2019-01-15T07:27:16.206Z,47.90
2019-01-15T07:29:45.816Z,47.03
2019-01-15T07:32:14.986Z,43.73
2019-01-15T07:34:44.723Z,43.70
2019-01-15T07:37:14.744Z,43.13
2019-01-15T07:39:43.486Z,39.40
2019-01-15T07:42:13.031Z,42.67
2019-01-15T07:44:44.520Z,53.37
2019-01-15T07:47:17.704Z,47.10
2019-01-15T07:49:47.249Z,40.13
2019-01-15T07:52:18.564Z,41.77
2019-01-15T07:54:47.175Z,45.77
2019-01-15T07:57:19.491Z,44.03
2019-01-15T07:59:48.896Z,39.27
2019-01-15T08:02:19.079Z,41.73
2019-01-15T08:04:52.240Z,40.17
2019-01-15T08:07:21.414Z,40.10
2019-01-15T08:09:51.117Z,39.73
2019-01-15T08:12:19.781Z,42.57
2019-01-15T08:14:49.381Z,43.30
2019-01-15T08:17:17.753Z,40.53
2019-01-15T08:19:46.678Z,41.50
2019-01-15T08:22:16.117Z,41.20
2019-01-15T08:24:45.276Z,40.37
2019-01-15T08:27:14.150Z,41.10
2019-01-15T08:29:43.208Z,45.30
2019-01-15T08:32:15.128Z,41.20
2019-01-15T08:34:44.210Z,39.33
2019-01-15T08:37:14.143Z,45.93
2019-01-15T08:39:45.685Z,39.00
2019-01-15T08:42:14.410Z,35.43
2019-01-15T08:44:44.909Z,43.90
2019-01-15T08:47:14.168Z,40.90
2019-01-15T08:49:47.619Z,39.73
2019-01-15T08:52:16.861Z,38.93
2019-01-15T08:54:45.355Z,46.30
2019-01-15T08:57:14.340Z,54.83
2019-01-15T08:59:43.433Z,44.10
2019-01-15T09:02:13.739Z,37.90
2019-01-15T09:04:42.927Z,45.40
2019-01-15T09:07:11.444Z,40.73
2019-01-15T09:09:39.746Z,44.70
2019-01-15T09:12:08.394Z,43.43
2019-01-15T09:14:37.210Z,41.97
2019-01-15T09:17:11.019Z,39.50
2019-01-15T09:19:37.538Z,42.03
2019-01-15T09:22:07.172Z,51.83
2019-01-15T09:24:35.628Z,54.13
2019-01-15T09:27:04.377Z,42.70
2019-01-15T09:29:35.694Z,41.30
2019-01-15T09:32:06.458Z,47.67
2019-01-15T09:34:35.204Z,42.67
2019-01-15T09:37:09.163Z,43.23
2019-01-15T09:39:45.607Z,48.37
2019-01-15T09:42:21.705Z,45.53
2019-01-15T09:44:51.817Z,44.17
2019-01-15T09:47:20.324Z,42.00
2019-01-15T09:49:48.934Z,38.73
2019-01-15T09:52:20.444Z,38.53
2019-01-15T09:54:48.612Z,39.47
2019-01-15T09:57:17.654Z,38.63
2019-01-15T09:59:46.873Z,39.53
2019-01-15T10:02:15.609Z,40.33
2019-01-15T10:04:45.285Z,40.77
2019-01-15T10:07:14.886Z,43.33
2019-01-15T10:09:45.349Z,38.50
2019-01-15T10:12:14.031Z,42.97
2019-01-15T10:14:43.420Z,40.73
2019-01-15T10:17:12.236Z,34.53
2019-01-15T10:19:40.586Z,39.60
2019-01-15T10:22:09.224Z,37.53
2019-01-15T10:24:38.547Z,40.90
2019-01-15T10:27:07.602Z,33.33
2019-01-15T10:29:37.029Z,41.90
2019-01-15T10:32:37.575Z,40.20
2019-01-15T10:35:20.923Z,40.97
2019-01-15T10:37:50.826Z,39.00
2019-01-15T10:40:19.697Z,34.07
2019-01-15T10:42:48.498Z,32.53
2019-01-15T10:45:17.828Z,36.80
2019-01-15T10:47:47.534Z,37.63
2019-01-15T10:50:20.900Z,38.80
2019-01-15T10:52:49.497Z,32.10
2019-01-15T10:55:18.801Z,38.60
2019-01-15T10:57:47.153Z,40.37
2019-01-15T11:00:15.974Z,32.20
2019-01-15T11:02:45.049Z,36.43
2019-01-15T11:05:14.251Z,32.93
2019-01-15T11:07:44.330Z,34.80
2019-01-15T11:10:14.311Z,35.80
2019-01-15T11:12:45.740Z,33.57
2019-01-15T11:15:14.372Z,32.63
2019-01-15T11:17:42.849Z,29.47
2019-01-15T11:20:13.084Z,32.43
2019-01-15T11:22:41.581Z,37.67
2019-01-15T11:25:11.460Z,32.40
2019-01-15T11:27:40.829Z,41.03
2019-01-15T11:30:10.957Z,31.03
2019-01-15T11:32:40.747Z,29.70
2019-01-15T11:35:10.873Z,28.73
2019-01-15T11:37:40.787Z,30.07
2019-01-15T11:40:09.348Z,34.00
2019-01-15T11:42:37.813Z,29.67
2019-01-15T11:45:07.979Z,27.53
2019-01-15T11:47:36.421Z,29.23
2019-01-15T11:50:11.743Z,31.00
2019-01-15T11:52:40.151Z,29.67
2019-01-15T11:55:10.678Z,30.60
2019-01-15T11:57:39.447Z,29.57
2019-01-15T12:00:14.108Z,29.67
2019-01-15T12:02:54.259Z,29.60
2019-01-15T12:05:45.212Z,25.37
2019-01-15T12:08:33.534Z,25.90
2019-01-15T12:11:21.040Z,32.67
2019-01-15T12:14:19.054Z,23.97
2019-01-15T12:17:08.126Z,25.50
2019-01-15T12:20:16.423Z,28.70
2019-01-15T12:23:11.492Z,26.87
2019-01-15T12:26:03.100Z,27.40
2019-01-15T12:28:46.196Z,21.93
2019-01-15T12:31:34.623Z,21.40
2019-01-15T12:34:23.044Z,23.10
2019-01-15T12:37:14.315Z,27.90
2019-01-15T12:40:00.006Z,25.27
2019-01-15T12:42:47.668Z,22.60
2019-01-15T12:45:45.611Z,23.73
2019-01-15T12:48:43.887Z,23.77
2019-01-15T12:51:42.180Z,27.50
2019-01-15T12:54:26.970Z,27.97
2019-01-15T12:57:31.253Z,28.57
2019-01-15T13:00:35.338Z,30.20
2019-01-15T13:03:33.362Z,27.13
2019-01-15T13:06:40.282Z,27.10
2019-01-15T13:09:45.414Z,35.43
2019-01-15T13:12:36.379Z,33.50
2019-01-15T13:15:34.685Z,26.93
2019-01-15T13:18:23.218Z,32.90
2019-01-15T13:21:10.484Z,26.37
2019-01-15T13:24:00.208Z,33.17
2019-01-15T13:26:48.615Z,31.10
2019-01-15T13:29:56.467Z,31.60
2019-01-15T13:32:45.538Z,25.13
2019-01-15T13:35:46.167Z,31.27
2019-01-15T13:38:41.306Z,29.17
2019-01-15T13:41:23.047Z,27.33
2019-01-15T13:44:11.616Z,29.33
2019-01-15T13:47:10.222Z,26.77
2019-01-15T13:49:58.945Z,34.20
2019-01-15T13:52:46.200Z,26.40
2019-01-15T13:55:35.014Z,31.37
2019-01-15T13:58:12.445Z,27.23
2019-01-15T14:00:54.566Z,30.93
2019-01-15T14:03:46.394Z,29.30
2019-01-15T14:06:37.526Z,31.87
2019-01-15T14:09:32.877Z,26.33
2019-01-15T14:12:36.944Z,24.13
2019-01-15T14:15:41.170Z,27.47
2019-01-15T14:18:34.036Z,28.73
2019-01-15T14:21:23.473Z,25.83
2019-01-15T14:24:15.520Z,25.27
2019-01-15T14:27:09.106Z,26.13
2019-01-15T14:30:04.588Z,25.60
2019-01-15T14:32:58.606Z,37.50
2019-01-15T14:35:45.962Z,27.20
2019-01-15T14:38:53.097Z,34.53
2019-01-15T14:41:40.145Z,28.47
2019-01-15T14:44:43.902Z,25.70
2019-01-15T14:47:48.291Z,26.53
2019-01-15T14:50:33.505Z,26.83
2019-01-15T14:53:20.464Z,28.00
2019-01-15T14:56:24.116Z,23.03
2019-01-15T14:59:11.683Z,21.17
2019-01-15T15:02:04.991Z,24.63
2019-01-15T15:05:00.763Z,25.63
2019-01-15T15:07:53.133Z,22.47
2019-01-15T15:10:41.130Z,23.57
2019-01-15T15:13:33.307Z,25.83
2019-01-15T15:16:26.711Z,26.97
2019-01-15T15:19:15.892Z,27.10
2019-01-15T15:22:13.222Z,21.63
2019-01-15T15:25:00.849Z,22.37
2019-01-15T15:27:43.357Z,22.17
2019-01-15T15:30:34.077Z,22.53
2019-01-15T15:33:24.304Z,25.83
2019-01-15T15:36:14.141Z,24.37
2019-01-15T15:38:57.954Z,21.23
2019-01-15T15:41:45.653Z,25.57
2019-01-15T15:44:34.185Z,24.10
2019-01-15T15:47:24.022Z,22.13
2019-01-15T15:50:24.879Z,20.17
2019-01-15T15:53:12.960Z,19.57
2019-01-15T15:56:03.493Z,23.97
2019-01-15T15:58:51.570Z,21.87
2019-01-15T16:01:36.889Z,17.10
2019-01-15T16:04:25.921Z,24.93
2019-01-15T16:07:32.423Z,18.63
2019-01-15T16:10:29.707Z,16.53
2019-01-15T16:13:17.301Z,21.97
2019-01-15T16:16:03.980Z,18.43
2019-01-15T16:19:07.492Z,21.60
2019-01-15T16:22:00.290Z,18.93
2019-01-15T16:24:54.652Z,22.47
2019-01-15T16:27:41.082Z,21.90
2019-01-15T16:30:28.219Z,20.20
2019-01-15T16:33:23.876Z,18.70
2019-01-15T16:36:23.652Z,17.63
2019-01-15T16:39:12.165Z,18.50
2019-01-15T16:42:01.361Z,16.30
2019-01-15T16:44:44.802Z,18.07
2019-01-15T16:47:23.140Z,18.57
2019-01-15T16:50:02.930Z,18.53
2019-01-15T16:52:54.493Z,16.80
2019-01-15T16:55:43.723Z,24.83
2019-01-15T16:58:50.482Z,18.47
2019-01-15T17:01:47.443Z,16.90
2019-01-15T17:04:49.388Z,23.17
2019-01-15T17:07:38.386Z,21.83
2019-01-15T17:10:36.664Z,20.30
2019-01-15T17:13:28.073Z,21.80
2019-01-15T17:16:33.326Z,23.33
2019-01-15T17:19:29.052Z,23.37
2019-01-15T17:22:26.379Z,23.40
2019-01-15T17:25:22.004Z,22.77
2019-01-15T17:28:03.435Z,20.53
2019-01-15T17:31:10.058Z,22.80
2019-01-15T17:34:07.787Z,24.40
2019-01-15T17:37:12.883Z,19.67
2019-01-15T17:40:03.450Z,21.77
2019-01-15T17:43:02.420Z,15.20
2019-01-15T17:45:52.280Z,22.50
2019-01-15T17:48:56.740Z,18.50
2019-01-15T17:51:44.168Z,24.23
2019-01-15T17:54:48.837Z,21.27
2019-01-15T17:57:35.886Z,22.03
2019-01-15T18:00:25.190Z,25.00
2019-01-15T18:03:17.980Z,18.63
2019-01-15T18:06:12.405Z,24.20
2019-01-15T18:08:58.953Z,21.27
2019-01-15T18:12:02.915Z,16.00
2019-01-15T18:14:54.465Z,20.80
2019-01-15T18:17:49.509Z,19.53
2019-01-15T18:20:40.487Z,19.93
2019-01-15T18:23:39.088Z,22.47
2019-01-15T18:26:30.138Z,17.80
2019-01-15T18:29:18.734Z,17.00
2019-01-15T18:32:23.818Z,20.53
2019-01-15T18:35:16.366Z,20.43
2019-01-15T18:38:10.452Z,22.17
2019-01-15T18:41:06.074Z,20.50
2019-01-15T18:43:55.383Z,19.63
2019-01-15T18:46:45.309Z,19.70
2019-01-15T18:49:35.034Z,21.80
2019-01-15T18:52:24.432Z,23.07
2019-01-15T18:55:22.672Z,21.90
2019-01-15T18:58:31.110Z,20.17
2019-01-15T19:01:25.535Z,20.43
2019-01-15T19:04:15.152Z,24.03
2019-01-15T19:07:03.050Z,22.40
2019-01-15T19:10:01.363Z,19.17
2019-01-15T19:12:51.957Z,21.23
2019-01-15T19:15:43.945Z,25.13
2019-01-15T19:18:41.323Z,25.97
2019-01-15T19:21:50.951Z,27.20
2019-01-15T19:24:57.419Z,23.40
2019-01-15T19:28:06.077Z,24.73
2019-01-15T19:31:12.766Z,24.27
2019-01-15T19:34:04.142Z,22.20
2019-01-15T19:37:11.613Z,28.80
2019-01-15T19:40:10.307Z,28.50
2019-01-15T19:42:58.349Z,22.40
2019-01-15T19:45:56.937Z,26.57
2019-01-15T19:48:41.428Z,27.90
2019-01-15T19:51:38.673Z,25.57
2019-01-15T19:54:33.449Z,20.70
2019-01-15T19:57:17.431Z,27.90
2019-01-15T20:00:06.468Z,21.03
2019-01-15T20:02:55.646Z,24.73
2019-01-15T20:05:46.993Z,27.27
2019-01-15T20:08:37.264Z,27.50
2019-01-15T20:11:24.693Z,26.33
2019-01-15T20:14:22.040Z,32.43
2019-01-15T20:17:18.348Z,29.43
2019-01-15T20:20:02.778Z,30.50
2019-01-15T20:22:51.126Z,29.03
2019-01-15T20:25:36.305Z,29.07
2019-01-15T20:28:47.241Z,29.43
2019-01-15T20:31:36.636Z,31.27
2019-01-15T20:34:22.346Z,29.50
2019-01-15T20:37:09.984Z,31.37
2019-01-15T20:39:59.146Z,34.10
2019-01-15T20:43:03.291Z,30.87
2019-01-15T20:45:57.809Z,27.13
2019-01-15T20:48:49.398Z,29.63
2019-01-15T20:51:46.710Z,24.07
2019-01-15T20:54:32.176Z,26.07
2019-01-15T20:57:32.195Z,25.33
2019-01-15T21:00:19.629Z,28.70
2019-01-15T21:03:25.790Z,26.30
2019-01-15T21:06:30.318Z,26.50
2019-01-15T21:09:19.015Z,24.97
2019-01-15T21:12:11.823Z,22.80
2019-01-15T21:15:11.215Z,22.60
2019-01-15T21:18:02.888Z,23.87
2019-01-15T21:20:57.248Z,19.83
2019-01-15T21:23:46.232Z,21.83
2019-01-15T21:26:31.582Z,23.60
2019-01-15T21:29:46.269Z,19.70
2019-01-15T21:32:38.419Z,22.23
2019-01-15T21:35:27.173Z,21.90
2019-01-15T21:38:22.608Z,25.40
2019-01-15T21:41:30.291Z,21.03
2019-01-15T21:44:20.783Z,27.53
2019-01-15T21:47:09.774Z,26.00
2019-01-15T21:50:17.027Z,28.63
2019-01-15T21:53:03.854Z,23.13
2019-01-15T21:55:42.997Z,19.73
2019-01-15T21:58:29.246Z,19.77
2019-01-15T22:01:16.718Z,22.23
2019-01-15T22:04:14.598Z,22.53
2019-01-15T22:07:21.691Z,26.53
2019-01-15T22:10:11.668Z,22.90
2019-01-15T22:12:53.298Z,26.50
2019-01-15T22:15:41.231Z,25.07
2019-01-15T22:18:27.961Z,27.20
2019-01-15T22:21:25.837Z,27.83
2019-01-15T22:24:14.469Z,20.10
2019-01-15T22:27:04.563Z,26.37
2019-01-15T22:29:51.381Z,25.50
2019-01-15T22:32:46.826Z,24.20
2019-01-15T22:35:42.719Z,24.87
2019-01-15T22:38:40.897Z,26.60
2019-01-15T22:41:35.697Z,25.73
2019-01-15T22:44:24.773Z,26.23
2019-01-15T22:47:13.023Z,22.03
2019-01-15T22:50:02.413Z,26.00
2019-01-15T22:52:52.309Z,24.83
2019-01-15T22:55:34.014Z,24.10
2019-01-15T22:58:25.539Z,22.93
2019-01-15T23:01:15.841Z,22.73
2019-01-15T23:04:08.108Z,21.90
2019-01-15T23:06:59.546Z,24.43
2019-01-15T23:09:48.707Z,19.23
2019-01-15T23:12:38.088Z,23.30
2019-01-15T23:15:42.317Z,26.53
2019-01-15T23:18:46.045Z,21.67
2019-01-15T23:21:52.327Z,20.43
2019-01-15T23:24:57.452Z,22.93
2019-01-15T23:28:01.169Z,20.07
2019-01-15T23:30:48.759Z,19.40
2019-01-15T23:33:43.726Z,19.67
2019-01-15T23:36:24.397Z,17.47
2019-01-15T23:39:16.331Z,23.90
2019-01-15T23:42:00.237Z,20.53
2019-01-15T23:44:50.426Z,19.07
2019-01-15T23:47:47.887Z,21.07
2019-01-15T23:50:28.560Z,17.47
2019-01-15T23:53:20.292Z,20.50
2019-01-15T23:56:06.295Z,23.40
2019-01-15T23:58:54.951Z,21.47
